Time;durP1;ratioP1;P1;durP2;ratioP2;P2;SDS_P1;SDS_P2;PMS_P1;PMS_P2;Temp;Humidity;BMP_temperature;BMP_pressure;BME280_temperature;BME280_humidity;BME280_pressure;Samples;Min_cycle;Max_cycle;Signal;HPM_P1;HPM_P2
2022/11/26 00:01:19;;;;;;;15.73;11.93;;;12.60;65.00;;;;;;5022250;28;20486;-56
2022/11/26 00:03:45;;;;;;;17.50;12.73;;;12.60;64.70;;;;;;5025874;28;20229;-56
2022/11/26 00:06:30;;;;;;;13.27;11.57;;;12.60;64.50;;;;;;5021611;28;20436;-56
2022/11/26 00:08:57;;;;;;;14.90;11.30;;;12.60;64.50;;;;;;5027628;28;20449;-56
2022/11/26 00:11:22;;;;;;;16.77;12.30;;;12.60;64.40;;;;;;5023523;28;20436;-57
2022/11/26 00:13:48;;;;;;;13.20;10.03;;;12.60;64.30;;;;;;5021117;28;20950;-56
2022/11/26 00:16:14;;;;;;;12.70;10.40;;;12.60;64.40;;;;;;5021851;28;20186;-56
2022/11/26 00:18:41;;;;;;;17.67;10.47;;;12.60;64.40;;;;;;5026723;28;20303;-55
2022/11/26 00:21:24;;;;;;;10.97;9.73;;;12.50;64.30;;;;;;5024046;28;20958;-57
2022/11/26 00:23:51;;;;;;;12.03;9.60;;;12.60;64.50;;;;;;5020260;28;20490;-56
2022/11/26 00:26:20;;;;;;;14.90;9.37;;;12.60;64.50;;;;;;5017764;28;20475;-56
2022/11/26 00:28:51;;;;;;;14.70;9.70;;;12.50;64.80;;;;;;5023601;28;20471;-56
2022/11/26 00:31:17;;;;;;;10.77;8.50;;;12.50;64.90;;;;;;5029160;28;20482;-56
2022/11/26 00:33:43;;;;;;;12.03;9.00;;;12.50;64.70;;;;;;5024446;28;20451;-54
2022/11/26 00:36:21;;;;;;;13.10;9.50;;;12.60;64.80;;;;;;5028974;28;20527;-55
2022/11/26 00:38:53;;;;;;;11.80;9.00;;;12.50;64.60;;;;;;5026260;28;20189;-56
2022/11/26 00:41:24;;;;;;;14.27;9.30;;;12.50;64.70;;;;;;5019457;28;20845;-57
2022/11/26 00:43:50;;;;;;;11.90;9.10;;;12.50;64.90;;;;;;5020484;28;20504;-56
2022/11/26 00:46:20;;;;;;;12.57;8.23;;;12.50;64.70;;;;;;5021176;28;20459;-56
2022/11/26 00:48:46;;;;;;;13.57;9.77;;;12.60;64.60;;;;;;5018444;28;20448;-55
2022/11/26 00:51:24;;;;;;;12.27;10.07;;;12.30;64.40;;;;;;5023054;28;20448;-56
2022/11/26 00:53:54;;;;;;;12.40;9.97;;;12.00;65.80;;;;;;5018135;28;20680;-57
2022/11/26 00:56:21;;;;;;;14.10;9.07;;;12.10;66.20;;;;;;5022876;28;20496;-55
2022/11/26 00:58:48;;;;;;;12.40;9.87;;;12.10;66.00;;;;;;5013103;28;20444;-57
2022/11/26 01:01:18;;;;;;;16.50;9.17;;;12.20;65.80;;;;;;5026425;28;20821;-57
2022/11/26 01:03:43;;;;;;;12.97;9.67;;;12.30;65.70;;;;;;5023937;28;20828;-57
2022/11/26 01:06:25;;;;;;;13.70;11.27;;;12.40;65.30;;;;;;5025036;28;20443;-56
2022/11/26 01:08:50;;;;;;;14.27;9.43;;;12.40;65.20;;;;;;5019226;28;20544;-55
2022/11/26 01:11:19;;;;;;;11.63;9.90;;;12.40;65.00;;;;;;5023036;28;20466;-58
2022/11/26 01:13:46;;;;;;;11.23;10.13;;;12.40;64.90;;;;;;5020153;28;20859;-56
2022/11/26 01:16:22;;;;;;;14.23;10.27;;;12.40;65.00;;;;;;5018421;28;20436;-57
2022/11/26 01:18:50;;;;;;;13.23;10.27;;;12.40;64.80;;;;;;5025170;28;20472;-56
2022/11/26 01:21:16;;;;;;;14.43;9.83;;;12.40;64.80;;;;;;5019328;28;20446;-56
2022/11/26 01:23:42;;;;;;;14.33;9.80;;;12.40;65.00;;;;;;5016922;28;20471;-56
2022/11/26 01:26:23;;;;;;;14.90;9.97;;;12.50;64.80;;;;;;5023660;28;20447;-57
2022/11/26 01:28:49;;;;;;;13.43;10.00;;;12.50;64.80;;;;;;5008684;28;20656;-56
2022/11/26 01:31:20;;;;;;;10.17;9.00;;;12.50;64.80;;;;;;5020778;28;20444;-56
2022/11/26 01:33:46;;;;;;;10.30;9.20;;;12.50;64.90;;;;;;5027273;28;20209;-57
2022/11/26 01:36:29;;;;;;;9.23;8.20;;;12.40;64.80;;;;;;5021192;28;20451;-56
2022/11/26 01:39:19;;;;;;;11.10;9.90;;;12.50;65.10;;;;;;5023564;28;20827;-56
2022/11/26 01:42:20;;;;;;;11.83;10.17;;;12.50;65.10;;;;;;5020858;28;20873;-56
2022/11/26 01:44:46;;;;;;;11.93;9.30;;;12.50;65.40;;;;;;5016921;28;20594;-58
2022/11/26 01:47:29;;;;;;;11.43;8.57;;;12.50;65.30;;;;;;5019957;28;20542;-55
2022/11/26 01:50:32;;;;;;;9.43;8.47;;;12.50;65.40;;;;;;5021485;28;20571;-56
2022/11/26 01:53:22;;;;;;;11.50;8.97;;;12.40;65.50;;;;;;5021203;28;20467;-58
2022/11/26 01:55:53;;;;;;;10.07;8.97;;;12.50;66.00;;;;;;5015510;28;20544;-55
2022/11/26 01:58:26;;;;;;;11.00;9.07;;;12.50;66.10;;;;;;5021131;28;20559;-56
2022/11/26 02:00:52;;;;;;;9.73;8.73;;;12.40;65.40;;;;;;5010361;28;20447;-55
2022/11/26 02:03:18;;;;;;;13.17;9.67;;;12.30;66.10;;;;;;5021203;28;20496;-56
2022/11/26 02:06:08;;;;;;;10.97;8.60;;;12.40;66.30;;;;;;5023688;28;20691;-56
2022/11/26 02:08:34;;;;;;;11.53;9.00;;;12.40;66.10;;;;;;5031675;28;20453;-58
2022/11/26 02:11:16;;;;;;;10.90;8.23;;;12.50;66.00;;;;;;5022674;28;20927;-58
2022/11/26 02:13:43;;;;;;;11.13;9.17;;;12.50;65.70;;;;;;5006794;28;20456;-57
2022/11/26 02:16:18;;;;;;;11.53;8.90;;;12.60;65.80;;;;;;5022869;28;20531;-57
2022/11/26 02:19:11;;;;;;;10.37;7.20;;;12.60;65.80;;;;;;5021266;28;20961;-58
2022/11/26 02:21:45;;;;;;;9.83;7.37;;;12.50;65.90;;;;;;5024264;28;20486;-57
2022/11/26 02:24:24;;;;;;;8.80;7.47;;;12.60;66.10;;;;;;5026118;28;20495;-57
2022/11/26 02:27:23;;;;;;;11.00;8.30;;;12.60;66.00;;;;;;5026962;28;20444;-56
2022/11/26 02:29:51;;;;;;;9.10;7.57;;;12.60;66.00;;;;;;5018480;28;20447;-58
2022/11/26 02:32:25;;;;;;;12.33;8.00;;;12.60;65.80;;;;;;5026460;28;20444;-57
2022/11/26 02:35:00;;;;;;;11.93;6.83;;;12.60;65.90;;;;;;5029459;28;20937;-57
2022/11/26 02:37:34;;;;;;;10.77;7.27;;;12.60;66.00;;;;;;5026768;28;20482;-57
2022/11/26 02:40:00;;;;;;;11.03;7.00;;;12.50;66.10;;;;;;5021601;28;20582;-57
2022/11/26 02:42:32;;;;;;;7.30;6.43;;;12.60;66.10;;;;;;5022003;28;20541;-57
2022/11/26 02:45:08;;;;;;;8.90;6.67;;;12.60;66.00;;;;;;5023812;28;20236;-57
2022/11/26 02:47:37;;;;;;;9.50;6.80;;;12.60;65.90;;;;;;5020753;28;20454;-58
2022/11/26 02:50:09;;;;;;;10.50;6.20;;;12.60;66.60;;;;;;5020584;28;20443;-58
2022/11/26 02:52:38;;;;;;;9.60;6.17;;;12.60;65.90;;;;;;5023592;28;20810;-58
2022/11/26 02:55:05;;;;;;;8.03;6.50;;;12.60;65.70;;;;;;5023317;28;20523;-57
2022/11/26 02:57:36;;;;;;;10.37;7.00;;;12.60;65.50;;;;;;5026697;28;20447;-58
2022/11/26 03:00:04;;;;;;;9.37;6.50;;;12.60;65.50;;;;;;5019971;28;20455;-58
2022/11/26 03:02:44;;;;;;;10.20;7.03;;;12.60;65.60;;;;;;5023026;28;20440;-58
2022/11/26 03:05:12;;;;;;;11.40;7.53;;;12.70;65.80;;;;;;5027132;28;20483;-58
2022/11/26 03:07:38;;;;;;;8.07;6.70;;;12.60;65.60;;;;;;5025553;28;20448;-57
2022/11/26 03:10:05;;;;;;;9.77;6.97;;;12.70;65.80;;;;;;5022821;28;20562;-58
2022/11/26 03:12:30;;;;;;;7.00;6.10;;;12.70;65.80;;;;;;5028605;28;20889;-58
2022/11/26 03:14:56;;;;;;;8.40;6.57;;;12.70;65.70;;;;;;5019315;28;20479;-58
2022/11/26 03:17:22;;;;;;;11.47;8.07;;;12.70;65.50;;;;;;5022496;28;20595;-58
2022/11/26 03:19:48;;;;;;;11.10;7.87;;;12.70;65.30;;;;;;5021214;28;20206;-57
2022/11/26 03:22:14;;;;;;;12.50;8.10;;;12.70;65.40;;;;;;5025396;28;21186;-57
2022/11/26 03:24:39;;;;;;;12.87;8.17;;;12.70;66.20;;;;;;5024093;28;20278;-58
2022/11/26 03:27:05;;;;;;;15.33;7.30;;;12.70;65.40;;;;;;5027772;28;20958;-58
2022/11/26 03:29:31;;;;;;;11.13;7.43;;;12.70;65.40;;;;;;5029264;28;20201;-56
2022/11/26 03:31:57;;;;;;;8.43;7.13;;;12.70;65.30;;;;;;5024716;28;20221;-58
2022/11/26 03:34:22;;;;;;;11.10;7.40;;;12.70;65.40;;;;;;5027594;28;20568;-58
2022/11/26 03:36:48;;;;;;;12.00;7.87;;;12.70;65.30;;;;;;5021738;28;21970;-58
2022/11/26 03:39:14;;;;;;;12.73;7.07;;;12.70;65.30;;;;;;5025594;28;21810;-58
2022/11/26 03:41:42;;;;;;;9.33;7.70;;;12.70;65.40;;;;;;5025508;28;20443;-57
2022/11/26 03:44:09;;;;;;;11.80;7.50;;;12.70;65.50;;;;;;5025785;28;20318;-57
2022/11/26 03:46:35;;;;;;;8.10;7.30;;;12.70;65.40;;;;;;5023463;28;20448;-56
2022/11/26 03:49:00;;;;;;;17.43;8.03;;;12.60;65.50;;;;;;5025288;28;20435;-58
2022/11/26 03:51:26;;;;;;;9.87;8.73;;;12.60;65.60;;;;;;5024518;28;20329;-57
2022/11/26 03:53:51;;;;;;;8.60;7.30;;;12.60;65.50;;;;;;5024729;28;20237;-57
2022/11/26 03:56:17;;;;;;;7.27;6.57;;;12.70;65.30;;;;;;5018540;28;20231;-57
2022/11/26 03:58:43;;;;;;;12.97;6.43;;;12.60;65.20;;;;;;5022859;28;20190;-56
2022/11/26 04:01:10;;;;;;;8.70;5.57;;;12.60;65.40;;;;;;5014929;28;20645;-57
2022/11/26 04:03:36;;;;;;;9.60;5.37;;;12.60;65.70;;;;;;5021757;28;20259;-58
2022/11/26 04:06:02;;;;;;;10.20;5.80;;;12.60;65.80;;;;;;5025776;28;20448;-58
2022/11/26 04:08:28;;;;;;;10.70;5.90;;;12.50;65.60;;;;;;5028167;28;20452;-57
2022/11/26 04:10:53;;;;;;;6.67;5.70;;;12.40;65.90;;;;;;5019442;28;20451;-57
2022/11/26 04:13:19;;;;;;;11.00;5.10;;;12.40;65.90;;;;;;5024503;28;20251;-56
2022/11/26 04:15:44;;;;;;;7.00;4.97;;;12.50;65.70;;;;;;5016908;28;20221;-57
2022/11/26 04:18:10;;;;;;;5.53;4.83;;;12.40;65.80;;;;;;5024929;28;20560;-58
2022/11/26 04:20:35;;;;;;;9.73;4.50;;;12.50;65.70;;;;;;5024549;28;20205;-57
2022/11/26 04:23:01;;;;;;;5.13;4.63;;;12.50;65.40;;;;;;5028179;28;20209;-58
2022/11/26 04:25:27;;;;;;;7.57;4.97;;;12.40;65.40;;;;;;5023214;28;20692;-56
2022/11/26 04:27:52;;;;;;;6.57;4.93;;;12.40;65.70;;;;;;5029223;28;20201;-57
2022/11/26 04:30:18;;;;;;;6.73;5.53;;;12.40;65.50;;;;;;5017736;28;20200;-58
2022/11/26 04:32:43;;;;;;;10.93;5.87;;;12.40;65.70;;;;;;5025609;28;20202;-57
2022/11/26 04:35:09;;;;;;;7.17;6.17;;;12.40;65.60;;;;;;5017552;28;20201;-56
2022/11/26 04:37:35;;;;;;;10.43;6.60;;;12.40;65.30;;;;;;5028724;28;20756;-56
2022/11/26 04:40:01;;;;;;;7.17;6.47;;;12.40;65.30;;;;;;5016281;28;20661;-58
2022/11/26 04:42:26;;;;;;;10.40;5.80;;;12.40;65.30;;;;;;5024608;28;20193;-58
2022/11/26 04:44:52;;;;;;;6.53;5.93;;;12.40;65.00;;;;;;5026377;28;20244;-57
2022/11/26 04:47:17;;;;;;;8.00;6.20;;;12.40;64.70;;;;;;5020880;28;20718;-57
2022/11/26 04:49:43;;;;;;;8.70;5.77;;;12.40;64.70;;;;;;5026404;28;20185;-57
2022/11/26 04:52:09;;;;;;;11.33;5.77;;;12.50;64.70;;;;;;5024792;28;20247;-56
2022/11/26 04:54:34;;;;;;;12.67;5.80;;;12.40;64.80;;;;;;5027335;28;20243;-57
2022/11/26 04:57:00;;;;;;;9.23;6.00;;;12.30;65.30;;;;;;5019232;28;20197;-58
2022/11/26 04:59:25;;;;;;;11.07;6.37;;;12.40;65.50;;;;;;5030754;28;20196;-57
2022/11/26 05:01:51;;;;;;;8.83;5.80;;;12.40;65.30;;;;;;5005956;28;20205;-57
2022/11/26 05:04:16;;;;;;;8.00;5.80;;;12.40;65.30;;;;;;5028846;28;20344;-58
2022/11/26 05:06:42;;;;;;;9.23;5.50;;;12.40;65.30;;;;;;5030191;28;20963;-57
2022/11/26 05:09:08;;;;;;;7.57;5.80;;;12.40;65.20;;;;;;5026707;28;20304;-58
2022/11/26 05:11:33;;;;;;;8.03;5.67;;;12.40;65.10;;;;;;5030120;28;20630;-58
2022/11/26 05:13:59;;;;;;;6.73;5.20;;;12.40;64.90;;;;;;5029394;28;20193;-58
2022/11/26 05:16:25;;;;;;;10.23;6.60;;;12.40;64.80;;;;;;5024935;28;20302;-58
2022/11/26 05:18:50;;;;;;;7.07;5.50;;;12.40;64.80;;;;;;5025485;28;20272;-57
2022/11/26 05:21:16;;;;;;;6.67;5.53;;;12.40;64.60;;;;;;5021380;28;20339;-58
2022/11/26 05:23:41;;;;;;;8.77;6.10;;;12.30;64.60;;;;;;5028943;28;20221;-58
2022/11/26 05:26:07;;;;;;;7.83;5.73;;;12.30;64.70;;;;;;5029026;28;20204;-57
2022/11/26 05:28:32;;;;;;;8.90;6.20;;;12.30;64.80;;;;;;5027920;28;20269;-58
2022/11/26 05:30:59;;;;;;;10.70;7.27;;;12.30;64.80;;;;;;5025101;28;20658;-58
2022/11/26 05:33:26;;;;;;;9.30;6.10;;;12.30;64.90;;;;;;5029116;28;20224;-57
2022/11/26 05:35:51;;;;;;;7.17;6.30;;;12.30;64.80;;;;;;5033289;28;20822;-57
2022/11/26 05:38:17;;;;;;;7.33;6.30;;;12.20;64.90;;;;;;5031961;28;20450;-58
2022/11/26 05:40:43;;;;;;;7.03;6.27;;;12.30;65.10;;;;;;5032543;28;20200;-56
2022/11/26 05:43:09;;;;;;;9.80;6.83;;;12.20;65.10;;;;;;5032687;28;20193;-58
2022/11/26 05:45:34;;;;;;;9.43;6.70;;;12.20;65.30;;;;;;5028334;28;20443;-57
2022/11/26 05:48:00;;;;;;;7.80;7.00;;;12.30;65.50;;;;;;5032394;28;20197;-57
2022/11/26 05:50:25;;;;;;;10.63;6.90;;;12.30;65.60;;;;;;5031148;28;20201;-58
2022/11/26 05:52:51;;;;;;;10.90;7.10;;;12.30;65.70;;;;;;5033135;28;20269;-57
2022/11/26 05:55:18;;;;;;;13.50;7.73;;;12.30;65.70;;;;;;5032051;28;20311;-57
2022/11/26 05:57:44;;;;;;;10.20;8.13;;;12.30;65.80;;;;;;5032172;28;20247;-58
2022/11/26 06:00:10;;;;;;;9.93;8.10;;;12.30;65.80;;;;;;5031903;28;20436;-55
2022/11/26 06:02:36;;;;;;;10.27;7.50;;;12.40;65.90;;;;;;5032013;28;20263;-58
2022/11/26 06:05:03;;;;;;;10.73;7.63;;;12.30;65.70;;;;;;5030822;28;20578;-57
2022/11/26 06:07:28;;;;;;;10.03;8.13;;;12.30;65.60;;;;;;5034550;28;20424;-58
2022/11/26 06:09:54;;;;;;;7.57;6.10;;;12.20;65.90;;;;;;5033797;28;20450;-57
2022/11/26 06:12:19;;;;;;;10.57;6.10;;;12.20;66.40;;;;;;5032614;28;20193;-56
2022/11/26 06:14:45;;;;;;;9.03;5.97;;;12.30;66.60;;;;;;5040057;28;20236;-58
2022/11/26 06:17:11;;;;;;;13.87;6.60;;;12.30;66.50;;;;;;5029618;28;20190;-57
2022/11/26 06:19:37;;;;;;;7.93;4.87;;;12.40;66.40;;;;;;5028311;28;20190;-58
2022/11/26 06:22:02;;;;;;;8.67;5.23;;;12.40;66.30;;;;;;5028649;28;20227;-58
2022/11/26 06:24:28;;;;;;;6.80;4.83;;;12.50;67.40;;;;;;5032270;28;20483;-58
2022/11/26 06:26:54;;;;;;;8.70;6.03;;;12.80;68.00;;;;;;5030839;28;20262;-58
2022/11/26 06:29:19;;;;;;;8.70;7.53;;;12.90;67.30;;;;;;5026694;28;20610;-58
2022/11/26 06:31:45;;;;;;;9.83;7.87;;;13.10;66.60;;;;;;5031125;28;20205;-58
2022/11/26 06:34:11;;;;;;;8.40;7.40;;;13.20;65.30;;;;;;5032450;28;20280;-58
2022/11/26 06:36:36;;;;;;;10.33;7.07;;;13.10;63.90;;;;;;5030395;28;20251;-57
2022/11/26 06:39:02;;;;;;;8.20;6.70;;;13.00;63.10;;;;;;5022394;28;20560;-57
2022/11/26 06:41:28;;;;;;;10.53;7.10;;;13.00;63.10;;;;;;5022192;28;20212;-58
2022/11/26 06:43:53;;;;;;;9.97;6.87;;;12.90;63.20;;;;;;5026563;28;20882;-56
2022/11/26 06:46:19;;;;;;;6.90;5.90;;;12.80;63.10;;;;;;5034816;28;20200;-57
2022/11/26 06:48:45;;;;;;;8.00;5.57;;;12.80;63.10;;;;;;5033922;28;20193;-58
2022/11/26 06:51:13;;;;;;;9.67;5.80;;;12.70;63.10;;;;;;5025615;28;20559;-57
2022/11/26 06:53:39;;;;;;;10.23;5.63;;;12.70;63.30;;;;;;5031464;28;20225;-57
2022/11/26 06:56:08;;;;;;;8.67;6.17;;;12.60;63.40;;;;;;5029037;28;20498;-57
2022/11/26 06:58:34;;;;;;;8.33;6.60;;;12.60;63.60;;;;;;5031559;28;20186;-58
2022/11/26 07:01:06;;;;;;;7.20;5.37;;;12.60;63.80;;;;;;5026282;28;20802;-56
2022/11/26 07:03:31;;;;;;;9.47;5.30;;;12.50;63.90;;;;;;5025230;28;20221;-57
2022/11/26 07:05:57;;;;;;;8.80;6.53;;;12.50;64.30;;;;;;5028283;28;20435;-57
2022/11/26 07:08:22;;;;;;;9.80;6.77;;;12.40;64.90;;;;;;5039005;28;20279;-57
2022/11/26 07:10:48;;;;;;;8.70;6.70;;;12.40;65.30;;;;;;5030072;28;20201;-58
2022/11/26 07:13:14;;;;;;;9.50;5.70;;;12.40;65.40;;;;;;5031645;28;20662;-57
2022/11/26 07:15:39;;;;;;;7.60;5.30;;;12.40;65.50;;;;;;5022213;28;20193;-56
2022/11/26 07:18:05;;;;;;;8.70;6.03;;;12.30;66.10;;;;;;5027000;28;20680;-56
2022/11/26 07:20:30;;;;;;;10.20;6.10;;;12.30;66.50;;;;;;5026954;28;20276;-56
2022/11/26 07:22:56;;;;;;;8.07;6.43;;;12.30;66.60;;;;;;5022220;28;20197;-58
2022/11/26 07:25:21;;;;;;;10.73;6.63;;;12.40;66.60;;;;;;5027532;28;20243;-56
2022/11/26 07:27:47;;;;;;;13.20;6.97;;;12.50;66.50;;;;;;5029613;28;20193;-57
2022/11/26 07:30:13;;;;;;;12.90;7.73;;;12.50;66.40;;;;;;5028156;28;20190;-58
2022/11/26 07:32:39;;;;;;;13.00;7.43;;;12.50;66.40;;;;;;5022286;28;20649;-56
2022/11/26 07:35:05;;;;;;;11.30;7.40;;;12.50;66.40;;;;;;5025146;28;20217;-58
2022/11/26 07:37:34;;;;;;;8.30;6.83;;;12.50;66.50;;;;;;5025543;28;20444;-56
2022/11/26 07:39:59;;;;;;;10.50;7.47;;;12.60;66.60;;;;;;5022195;28;20456;-58
2022/11/26 07:42:28;;;;;;;9.07;8.10;;;12.60;66.70;;;;;;5032126;28;20454;-55
2022/11/26 07:44:53;;;;;;;14.30;12.77;;;12.50;66.60;;;;;;5027825;28;20243;-56
2022/11/26 07:47:19;;;;;;;10.27;8.17;;;12.60;66.90;;;;;;5028579;28;20962;-57
2022/11/26 07:49:45;;;;;;;15.00;9.20;;;12.50;66.80;;;;;;5021139;28;20615;-55
2022/11/26 07:52:10;;;;;;;9.97;7.17;;;12.60;67.10;;;;;;5023615;28;20197;-54
2022/11/26 07:54:36;;;;;;;11.00;7.00;;;12.60;66.90;;;;;;5028964;28;20691;-55
2022/11/26 07:57:02;;;;;;;7.27;6.57;;;12.60;66.80;;;;;;5023909;28;20203;-57
2022/11/26 07:59:27;;;;;;;7.37;6.63;;;12.60;66.80;;;;;;5022199;28;20444;-55
2022/11/26 08:01:53;;;;;;;8.97;5.53;;;12.70;66.90;;;;;;5029421;28;20193;-57
2022/11/26 08:04:19;;;;;;;15.77;7.13;;;12.70;66.90;;;;;;5039666;28;20220;-57
2022/11/26 08:06:44;;;;;;;13.00;8.83;;;12.70;67.20;;;;;;5038330;28;20205;-57
2022/11/26 08:09:10;;;;;;;8.97;6.47;;;12.70;67.30;;;;;;5032602;28;20299;-55
2022/11/26 08:11:36;;;;;;;9.30;6.60;;;12.70;67.30;;;;;;5031697;28;20719;-54
2022/11/26 08:14:05;;;;;;;9.63;7.80;;;12.70;67.30;;;;;;5033451;28;20462;-55
2022/11/26 08:16:31;;;;;;;10.30;7.83;;;12.70;67.30;;;;;;5027581;28;20200;-54
2022/11/26 08:19:10;;;;;;;7.97;6.47;;;12.70;67.40;;;;;;5018243;28;20802;-55
2022/11/26 08:21:35;;;;;;;6.97;6.20;;;12.80;67.50;;;;;;5027053;28;20443;-55
2022/11/26 08:24:02;;;;;;;9.87;5.90;;;12.80;67.60;;;;;;5028570;28;20513;-54
2022/11/26 08:26:28;;;;;;;9.00;6.87;;;12.80;67.50;;;;;;5034446;28;20190;-54
2022/11/26 08:28:53;;;;;;;10.50;8.40;;;12.80;67.50;;;;;;5029979;28;20435;-54
2022/11/26 08:31:19;;;;;;;8.83;7.83;;;12.80;67.50;;;;;;5027667;28;20197;-53
2022/11/26 08:33:45;;;;;;;10.13;6.83;;;12.90;67.60;;;;;;5027370;28;20270;-55
2022/11/26 08:36:11;;;;;;;15.60;7.27;;;12.90;67.70;;;;;;5018924;28;20194;-56
2022/11/26 08:38:38;;;;;;;9.73;6.97;;;12.90;67.70;;;;;;5029445;28;20254;-54
2022/11/26 08:41:09;;;;;;;9.60;7.13;;;12.90;67.60;;;;;;4999465;28;20878;-56
2022/11/26 08:43:35;;;;;;;10.20;7.60;;;12.90;67.40;;;;;;5032926;28;20566;-57
2022/11/26 08:46:01;;;;;;;24.83;14.83;;;12.90;67.40;;;;;;5030384;28;20439;-58
2022/11/26 08:48:28;;;;;;;17.17;10.67;;;13.00;67.20;;;;;;5031426;28;20452;-58
2022/11/26 08:51:03;;;;;;;13.63;11.87;;;13.00;67.30;;;;;;5025451;28;20193;-59
2022/11/26 08:53:29;;;;;;;11.50;10.33;;;13.00;67.60;;;;;;4990433;28;1113876;-58
2022/11/26 08:56:03;;;;;;;12.13;9.90;;;13.00;67.60;;;;;;5029678;28;20232;-58
2022/11/26 08:58:31;;;;;;;14.00;9.17;;;13.00;67.40;;;;;;5021101;28;21055;-58
2022/11/26 09:00:57;;;;;;;11.47;8.63;;;13.00;67.50;;;;;;5024842;28;20479;-58
2022/11/26 09:03:22;;;;;;;8.33;7.40;;;13.10;67.60;;;;;;5027285;28;20942;-57
2022/11/26 09:05:48;;;;;;;11.07;7.87;;;13.10;67.60;;;;;;5028576;28;20633;-58
2022/11/26 09:08:13;;;;;;;10.07;7.70;;;13.10;67.60;;;;;;5030262;28;20279;-57
2022/11/26 09:10:39;;;;;;;10.43;7.53;;;13.10;67.70;;;;;;5029468;28;20208;-57
2022/11/26 09:13:04;;;;;;;10.77;6.73;;;13.20;67.80;;;;;;5018141;28;20193;-58
2022/11/26 09:15:30;;;;;;;9.60;7.90;;;13.20;67.80;;;;;;5028988;28;20189;-57
2022/11/26 09:17:56;;;;;;;10.00;8.07;;;13.30;67.70;;;;;;5034339;28;20293;-57
2022/11/26 09:20:22;;;;;;;24.67;10.83;;;13.30;67.40;;;;;;5015708;28;20236;-58
2022/11/26 09:22:47;;;;;;;14.50;11.60;;;13.30;67.10;;;;;;5018208;28;20529;-58
2022/11/26 09:25:14;;;;;;;15.70;10.20;;;13.20;66.60;;;;;;5020733;28;20298;-58
2022/11/26 09:27:39;;;;;;;17.13;11.10;;;13.20;67.10;;;;;;5024694;28;20197;-55
2022/11/26 09:30:05;;;;;;;13.20;9.63;;;13.20;68.50;;;;;;5029628;28;20451;-55
2022/11/26 09:32:33;;;;;;;10.90;9.73;;;13.40;69.40;;;;;;5027484;28;20208;-55
2022/11/26 09:34:58;;;;;;;15.63;8.33;;;13.50;69.10;;;;;;5026563;28;20527;-56
2022/11/26 09:37:24;;;;;;;13.17;8.43;;;13.70;69.30;;;;;;5022474;28;20594;-55
2022/11/26 09:39:52;;;;;;;12.50;7.37;;;14.00;68.20;;;;;;5027263;28;20266;-56
2022/11/26 09:42:28;;;;;;;11.60;7.00;;;14.20;66.60;;;;;;5028528;28;20205;-56
2022/11/26 09:45:18;;;;;;;12.03;6.70;;;14.40;65.90;;;;;;5024999;28;20490;-56
2022/11/26 09:47:47;;;;;;;9.70;6.60;;;14.60;65.00;;;;;;5027052;28;20451;-56
2022/11/26 09:50:12;;;;;;;11.30;7.63;;;15.00;63.50;;;;;;5019205;28;20682;-56
2022/11/26 09:52:58;;;;;;;9.50;7.67;;;15.20;62.30;;;;;;5025926;28;20969;-56
2022/11/26 09:55:29;;;;;;;10.07;8.00;;;15.30;62.10;;;;;;5022328;28;20213;-56
2022/11/26 09:58:13;;;;;;;10.30;6.93;;;15.40;61.20;;;;;;5023353;28;22386;-56
2022/11/26 10:00:46;;;;;;;8.70;7.43;;;15.50;61.40;;;;;;5024349;28;20801;-56
2022/11/26 10:03:21;;;;;;;13.27;6.70;;;15.80;60.80;;;;;;5029270;28;20460;-55
2022/11/26 10:05:58;;;;;;;13.50;6.17;;;15.90;59.80;;;;;;5033512;28;20436;-55
2022/11/26 10:08:39;;;;;;;9.40;5.13;;;16.00;58.20;;;;;;5027971;28;20479;-55
2022/11/26 10:11:23;;;;;;;7.17;6.50;;;16.00;57.40;;;;;;5029315;28;22922;-55
2022/11/26 10:14:19;;;;;;;9.77;6.23;;;16.00;57.60;;;;;;5020938;28;20447;-55
2022/11/26 10:17:09;;;;;;;9.30;6.50;;;15.90;58.00;;;;;;5021182;28;20471;-55
2022/11/26 10:19:48;;;;;;;8.70;6.70;;;15.80;58.50;;;;;;5022288;28;20460;-57
2022/11/26 10:22:26;;;;;;;8.80;6.40;;;15.70;58.30;;;;;;5026531;28;20448;-54
2022/11/26 10:24:54;;;;;;;14.40;6.93;;;15.60;58.60;;;;;;5022184;28;20492;-55
2022/11/26 10:27:25;;;;;;;11.20;6.30;;;15.60;58.60;;;;;;5019504;28;20453;-53
2022/11/26 10:29:58;;;;;;;12.03;6.37;;;15.50;59.20;;;;;;5027648;28;20440;-56
2022/11/26 10:32:40;;;;;;;10.30;4.97;;;15.40;59.10;;;;;;5020686;28;20447;-56
2022/11/26 10:35:06;;;;;;;10.77;5.50;;;15.40;59.10;;;;;;5027713;28;20497;-56
2022/11/26 10:37:31;;;;;;;9.40;5.17;;;15.20;59.10;;;;;;5026442;28;20432;-55
2022/11/26 10:40:12;;;;;;;12.27;5.60;;;15.20;59.30;;;;;;5021918;28;20280;-55
2022/11/26 10:42:43;;;;;;;11.27;5.80;;;15.20;58.80;;;;;;5029329;28;20258;-55
2022/11/26 10:45:22;;;;;;;11.30;4.20;;;15.20;59.00;;;;;;5022923;28;20484;-54
2022/11/26 10:47:48;;;;;;;5.93;4.40;;;15.20;58.90;;;;;;5024091;28;20565;-54
2022/11/26 10:50:24;;;;;;;6.97;4.67;;;15.20;58.60;;;;;;5019621;28;20539;-53
2022/11/26 10:52:51;;;;;;;10.50;5.70;;;15.10;58.30;;;;;;5031713;28;20205;-53
2022/11/26 10:55:33;;;;;;;9.03;5.10;;;15.10;58.30;;;;;;5028903;28;20471;-55
2022/11/26 10:58:04;;;;;;;6.60;5.00;;;15.20;59.00;;;;;;5031875;28;20455;-54
2022/11/26 11:00:41;;;;;;;16.30;11.23;;;15.20;59.30;;;;;;5024349;28;20447;-54
2022/11/26 11:03:21;;;;;;;14.50;11.20;;;15.20;59.40;;;;;;5021302;28;20495;-54
2022/11/26 11:05:47;;;;;;;13.10;7.57;;;15.30;59.40;;;;;;5019857;28;20519;-54
2022/11/26 11:08:29;;;;;;;6.80;5.37;;;15.30;59.10;;;;;;5028725;28;20931;-54
2022/11/26 11:11:03;;;;;;;7.83;5.50;;;15.30;59.10;;;;;;5029540;28;20189;-52
2022/11/26 11:13:43;;;;;;;10.13;5.30;;;15.40;59.20;;;;;;5038623;28;20455;-54
2022/11/26 11:16:11;;;;;;;6.33;5.20;;;15.30;59.30;;;;;;5027622;28;20475;-54
2022/11/26 11:18:37;;;;;;;9.23;5.60;;;15.30;58.90;;;;;;5030623;28;20439;-54
2022/11/26 11:21:04;;;;;;;8.40;5.13;;;15.30;59.10;;;;;;5028264;28;20526;-54
2022/11/26 11:23:37;;;;;;;7.73;5.37;;;15.40;59.50;;;;;;5029315;28;20803;-53
2022/11/26 11:26:14;;;;;;;8.33;4.50;;;15.40;58.90;;;;;;5031378;28;20857;-53
2022/11/26 11:28:46;;;;;;;7.93;4.63;;;15.60;58.70;;;;;;5024326;28;20833;-54
2022/11/26 11:31:16;;;;;;;8.20;4.80;;;15.70;59.10;;;;;;5041564;28;20447;-54
2022/11/26 11:33:42;;;;;;;6.40;4.07;;;15.70;60.30;;;;;;5025891;28;21092;-54
2022/11/26 11:36:11;;;;;;;8.00;3.83;;;15.90;59.60;;;;;;5022675;28;20531;-54
2022/11/26 11:38:58;;;;;;;9.57;5.73;;;16.00;57.90;;;;;;5029131;28;20505;-55
2022/11/26 11:41:45;;;;;;;10.37;4.17;;;16.10;57.40;;;;;;5034469;28;20675;-56
2022/11/26 11:44:29;;;;;;;9.57;3.80;;;16.30;57.10;;;;;;5031215;28;21010;-53
2022/11/26 11:47:26;;;;;;;7.27;4.63;;;16.30;57.60;;;;;;5031368;28;20454;-53
2022/11/26 11:50:22;;;;;;;11.37;4.20;;;16.50;58.10;;;;;;5026404;28;20448;-54
2022/11/26 11:53:14;;;;;;;13.67;4.60;;;16.50;57.30;;;;;;5027954;28;20455;-53
2022/11/26 11:56:08;;;;;;;10.50;4.60;;;16.70;56.70;;;;;;5022555;28;20805;-54
2022/11/26 11:58:55;;;;;;;12.03;4.33;;;16.70;56.10;;;;;;5019287;28;20456;-54
2022/11/26 12:01:33;;;;;;;10.93;4.70;;;16.60;56.10;;;;;;5031214;28;20455;-54
2022/11/26 12:04:22;;;;;;;6.20;4.50;;;16.60;55.80;;;;;;5022415;28;20574;-53
2022/11/26 12:07:15;;;;;;;9.23;4.63;;;16.60;55.60;;;;;;5031562;28;20823;-54
2022/11/26 12:09:47;;;;;;;7.50;4.90;;;16.60;55.40;;;;;;5029196;28;20456;-54
2022/11/26 12:12:31;;;;;;;11.60;4.47;;;16.60;55.50;;;;;;5029170;28;20625;-52
2022/11/26 12:15:15;;;;;;;7.77;4.80;;;16.70;55.80;;;;;;5025548;28;20455;-53
2022/11/26 12:17:46;;;;;;;7.63;3.90;;;16.80;55.70;;;;;;5033230;28;20958;-54
2022/11/26 12:20:25;;;;;;;9.60;4.47;;;16.80;54.20;;;;;;5029664;28;20451;-53
2022/11/26 12:23:11;;;;;;;6.30;4.13;;;17.00;54.50;;;;;;5029793;28;20447;-54
2022/11/26 12:25:38;;;;;;;6.03;4.13;;;17.00;54.30;;;;;;5025770;28;20877;-53
2022/11/26 12:28:26;;;;;;;10.27;5.07;;;17.10;53.60;;;;;;5031552;28;20436;-54
2022/11/26 12:31:15;;;;;;;9.93;4.50;;;17.20;53.00;;;;;;5030029;28;20440;-52
2022/11/26 12:34:04;;;;;;;12.40;4.53;;;17.20;52.40;;;;;;5026776;28;20452;-53
2022/11/26 12:36:42;;;;;;;9.50;3.80;;;17.20;52.70;;;;;;5024459;28;20530;-53
2022/11/26 12:39:18;;;;;;;7.53;3.17;;;17.40;53.00;;;;;;5029772;28;20450;-53
2022/11/26 12:41:53;;;;;;;9.07;3.37;;;17.40;52.10;;;;;;5027184;28;20454;-54
2022/11/26 12:44:22;;;;;;;10.03;4.63;;;17.50;52.30;;;;;;5025084;28;20495;-55
2022/11/26 12:47:00;;;;;;;9.87;3.37;;;17.60;51.70;;;;;;5023375;28;20602;-54
2022/11/26 12:49:43;;;;;;;8.60;3.73;;;17.70;51.00;;;;;;5022707;28;20510;-54
2022/11/26 12:52:30;;;;;;;3.90;3.17;;;17.90;50.60;;;;;;5021252;28;20443;-56
2022/11/26 12:55:17;;;;;;;10.13;3.60;;;18.10;50.80;;;;;;5019117;28;20491;-55
2022/11/26 12:57:54;;;;;;;7.40;3.67;;;18.30;50.30;;;;;;5024056;28;20451;-56